sensor_id;sensor_type;location;lat;lon;timestamp;P1;durP1;ratioP1;P2;durP2;ratioP2
32455;SDS011;18912;43.270;27.942;2024-03-06T00:01:54;21.87;;;5.70;;
32455;SDS011;18912;43.270;27.942;2024-03-06T00:04:19;19.73;;;5.70;;
32455;SDS011;18912;43.270;27.942;2024-03-06T00:06:45;15.37;;;5.43;;
32455;SDS011;18912;43.270;27.942;2024-03-06T00:09:10;29.37;;;6.23;;
32455;SDS011;18912;43.270;27.942;2024-03-06T00:11:37;18.25;;;5.00;;
32455;SDS011;18912;43.270;27.942;2024-03-06T00:14:02;16.53;;;5.67;;
32455;SDS011;18912;43.270;27.942;2024-03-06T00:16:30;15.10;;;5.43;;
32455;SDS011;18912;43.270;27.942;2024-03-06T00:18:56;22.10;;;5.43;;
32455;SDS011;18912;43.270;27.942;2024-03-06T00:21:22;15.40;;;4.83;;
32455;SDS011;18912;43.270;27.942;2024-03-06T00:23:47;16.97;;;5.73;;
32455;SDS011;18912;43.270;27.942;2024-03-06T00:26:13;13.00;;;6.23;;
32455;SDS011;18912;43.270;27.942;2024-03-06T00:28:39;16.90;;;7.83;;
32455;SDS011;18912;43.270;27.942;2024-03-06T00:31:07;16.55;;;6.35;;
32455;SDS011;18912;43.270;27.942;2024-03-06T00:33:33;23.67;;;7.25;;
32455;SDS011;18912;43.270;27.942;2024-03-06T00:35:58;21.63;;;7.37;;
32455;SDS011;18912;43.270;27.942;2024-03-06T00:38:24;20.33;;;8.27;;
32455;SDS011;18912;43.270;27.942;2024-03-06T00:40:50;21.90;;;8.93;;
32455;SDS011;18912;43.270;27.942;2024-03-06T00:43:16;27.10;;;8.03;;
32455;SDS011;18912;43.270;27.942;2024-03-06T00:45:41;25.77;;;9.77;;
32455;SDS011;18912;43.270;27.942;2024-03-06T00:48:07;22.70;;;8.57;;
32455;SDS011;18912;43.270;27.942;2024-03-06T00:50:33;15.23;;;5.57;;
32455;SDS011;18912;43.270;27.942;2024-03-06T00:52:58;24.20;;;9.57;;
32455;SDS011;18912;43.270;27.942;2024-03-06T00:55:24;31.93;;;9.43;;
32455;SDS011;18912;43.270;27.942;2024-03-06T00:57:50;21.17;;;8.50;;
32455;SDS011;18912;43.270;27.942;2024-03-06T01:00:15;28.07;;;10.13;;
32455;SDS011;18912;43.270;27.942;2024-03-06T01:02:41;23.58;;;10.00;;
32455;SDS011;18912;43.270;27.942;2024-03-06T01:05:07;26.47;;;10.13;;
32455;SDS011;18912;43.270;27.942;2024-03-06T01:07:34;25.40;;;9.85;;
32455;SDS011;18912;43.270;27.942;2024-03-06T01:10:00;28.88;;;11.10;;
32455;SDS011;18912;43.270;27.942;2024-03-06T01:12:26;26.45;;;9.80;;
32455;SDS011;18912;43.270;27.942;2024-03-06T01:14:52;29.77;;;10.27;;
32455;SDS011;18912;43.270;27.942;2024-03-06T01:17:17;30.33;;;9.70;;
32455;SDS011;18912;43.270;27.942;2024-03-06T01:19:43;25.38;;;7.32;;
32455;SDS011;18912;43.270;27.942;2024-03-06T01:22:09;34.13;;;10.13;;
32455;SDS011;18912;43.270;27.942;2024-03-06T01:24:35;26.80;;;10.27;;
32455;SDS011;18912;43.270;27.942;2024-03-06T01:27:01;31.27;;;10.80;;
32455;SDS011;18912;43.270;27.942;2024-03-06T01:29:31;31.25;;;10.95;;
32455;SDS011;18912;43.270;27.942;2024-03-06T01:31:57;22.75;;;10.52;;
32455;SDS011;18912;43.270;27.942;2024-03-06T01:36:50;31.55;;;11.98;;
32455;SDS011;18912;43.270;27.942;2024-03-06T01:39:15;28.83;;;12.53;;
32455;SDS011;18912;43.270;27.942;2024-03-06T01:41:45;35.95;;;12.90;;
32455;SDS011;18912;43.270;27.942;2024-03-06T01:44:11;32.30;;;12.95;;
32455;SDS011;18912;43.270;27.942;2024-03-06T01:46:37;36.53;;;13.27;;
32455;SDS011;18912;43.270;27.942;2024-03-06T01:49:03;30.50;;;12.87;;
32455;SDS011;18912;43.270;27.942;2024-03-06T01:51:29;29.63;;;13.20;;
32455;SDS011;18912;43.270;27.942;2024-03-06T01:53:55;25.30;;;12.40;;
32455;SDS011;18912;43.270;27.942;2024-03-06T01:56:22;35.67;;;13.10;;
32455;SDS011;18912;43.270;27.942;2024-03-06T01:58:48;24.47;;;12.43;;
32455;SDS011;18912;43.270;27.942;2024-03-06T02:01:14;29.50;;;12.27;;
32455;SDS011;18912;43.270;27.942;2024-03-06T02:03:42;37.30;;;13.27;;
32455;SDS011;18912;43.270;27.942;2024-03-06T02:06:09;37.33;;;14.48;;
32455;SDS011;18912;43.270;27.942;2024-03-06T02:08:36;34.70;;;14.15;;
32455;SDS011;18912;43.270;27.942;2024-03-06T02:11:01;34.80;;;12.20;;
32455;SDS011;18912;43.270;27.942;2024-03-06T02:13:28;26.92;;;11.50;;
32455;SDS011;18912;43.270;27.942;2024-03-06T02:15:54;24.83;;;12.15;;
32455;SDS011;18912;43.270;27.942;2024-03-06T02:18:20;36.57;;;12.37;;
32455;SDS011;18912;43.270;27.942;2024-03-06T02:20:46;29.70;;;12.47;;
32455;SDS011;18912;43.270;27.942;2024-03-06T02:23:12;31.65;;;11.70;;
32455;SDS011;18912;43.270;27.942;2024-03-06T02:25:39;38.90;;;12.57;;
32455;SDS011;18912;43.270;27.942;2024-03-06T02:28:06;27.42;;;11.80;;
32455;SDS011;18912;43.270;27.942;2024-03-06T02:30:32;31.17;;;12.67;;
32455;SDS011;18912;43.270;27.942;2024-03-06T02:33:01;30.95;;;12.13;;
32455;SDS011;18912;43.270;27.942;2024-03-06T02:35:30;33.90;;;11.95;;
32455;SDS011;18912;43.270;27.942;2024-03-06T02:37:57;33.43;;;12.70;;
32455;SDS011;18912;43.270;27.942;2024-03-06T02:40:24;29.13;;;12.40;;
32455;SDS011;18912;43.270;27.942;2024-03-06T02:42:50;35.13;;;12.03;;
32455;SDS011;18912;43.270;27.942;2024-03-06T02:45:15;36.33;;;13.40;;
32455;SDS011;18912;43.270;27.942;2024-03-06T02:47:41;28.43;;;12.30;;
32455;SDS011;18912;43.270;27.942;2024-03-06T02:50:07;29.25;;;12.15;;
32455;SDS011;18912;43.270;27.942;2024-03-06T02:52:32;29.38;;;12.95;;
32455;SDS011;18912;43.270;27.942;2024-03-06T02:54:58;28.43;;;12.77;;
32455;SDS011;18912;43.270;27.942;2024-03-06T02:59:54;40.28;;;13.07;;
32455;SDS011;18912;43.270;27.942;2024-03-06T03:02:20;38.33;;;12.85;;
32455;SDS011;18912;43.270;27.942;2024-03-06T03:04:46;45.10;;;13.83;;
32455;SDS011;18912;43.270;27.942;2024-03-06T03:07:11;40.07;;;12.33;;
32455;SDS011;18912;43.270;27.942;2024-03-06T03:09:37;35.97;;;13.47;;
32455;SDS011;18912;43.270;27.942;2024-03-06T03:12:03;35.30;;;14.27;;
32455;SDS011;18912;43.270;27.942;2024-03-06T03:14:29;45.85;;;14.52;;
32455;SDS011;18912;43.270;27.942;2024-03-06T03:16:54;37.60;;;14.43;;
32455;SDS011;18912;43.270;27.942;2024-03-06T03:19:20;30.40;;;14.10;;
32455;SDS011;18912;43.270;27.942;2024-03-06T03:21:46;38.58;;;15.05;;
32455;SDS011;18912;43.270;27.942;2024-03-06T03:24:12;44.45;;;15.55;;
32455;SDS011;18912;43.270;27.942;2024-03-06T03:26:38;41.33;;;16.13;;
32455;SDS011;18912;43.270;27.942;2024-03-06T03:29:03;36.23;;;15.80;;
32455;SDS011;18912;43.270;27.942;2024-03-06T03:33:55;44.42;;;16.38;;
32455;SDS011;18912;43.270;27.942;2024-03-06T03:36:21;34.67;;;15.33;;
32455;SDS011;18912;43.270;27.942;2024-03-06T03:38:46;43.40;;;17.77;;
32455;SDS011;18912;43.270;27.942;2024-03-06T03:41:12;41.67;;;16.53;;
32455;SDS011;18912;43.270;27.942;2024-03-06T03:43:39;34.38;;;15.13;;
32455;SDS011;18912;43.270;27.942;2024-03-06T03:46:05;39.80;;;16.25;;
32455;SDS011;18912;43.270;27.942;2024-03-06T03:48:32;36.58;;;15.75;;
32455;SDS011;18912;43.270;27.942;2024-03-06T03:51:01;44.20;;;16.02;;
32455;SDS011;18912;43.270;27.942;2024-03-06T03:53:34;30.77;;;14.55;;
32455;SDS011;18912;43.270;27.942;2024-03-06T03:56:00;36.75;;;14.95;;
32455;SDS011;18912;43.270;27.942;2024-03-06T03:58:27;34.97;;;14.30;;
32455;SDS011;18912;43.270;27.942;2024-03-06T04:00:53;38.70;;;15.30;;
32455;SDS011;18912;43.270;27.942;2024-03-06T04:03:20;36.72;;;15.27;;
32455;SDS011;18912;43.270;27.942;2024-03-06T04:05:48;35.88;;;14.50;;
32455;SDS011;18912;43.270;27.942;2024-03-06T04:08:14;36.78;;;14.93;;
32455;SDS011;18912;43.270;27.942;2024-03-06T04:10:43;36.33;;;15.85;;
32455;SDS011;18912;43.270;27.942;2024-03-06T04:13:12;45.03;;;16.20;;
32455;SDS011;18912;43.270;27.942;2024-03-06T04:15:41;43.00;;;16.30;;
32455;SDS011;18912;43.270;27.942;2024-03-06T04:18:07;35.73;;;16.27;;
32455;SDS011;18912;43.270;27.942;2024-03-06T04:20:32;36.27;;;15.57;;
32455;SDS011;18912;43.270;27.942;2024-03-06T04:22:58;43.10;;;17.03;;
32455;SDS011;18912;43.270;27.942;2024-03-06T04:25:24;36.77;;;16.63;;
32455;SDS011;18912;43.270;27.942;2024-03-06T04:27:49;37.35;;;15.43;;
32455;SDS011;18912;43.270;27.942;2024-03-06T04:30:15;35.37;;;15.70;;
32455;SDS011;18912;43.270;27.942;2024-03-06T04:32:40;41.13;;;16.10;;
32455;SDS011;18912;43.270;27.942;2024-03-06T04:35:06;34.10;;;13.07;;
32455;SDS011;18912;43.270;27.942;2024-03-06T04:37:34;27.70;;;13.10;;
32455;SDS011;18912;43.270;27.942;2024-03-06T04:40:00;32.72;;;13.85;;
32455;SDS011;18912;43.270;27.942;2024-03-06T04:42:27;26.63;;;13.57;;
32455;SDS011;18912;43.270;27.942;2024-03-06T04:44:53;33.55;;;12.07;;
32455;SDS011;18912;43.270;27.942;2024-03-06T04:47:19;26.53;;;11.57;;
32455;SDS011;18912;43.270;27.942;2024-03-06T04:49:44;25.10;;;12.00;;
32455;SDS011;18912;43.270;27.942;2024-03-06T04:52:10;27.20;;;12.87;;
32455;SDS011;18912;43.270;27.942;2024-03-06T04:54:36;25.90;;;11.88;;
32455;SDS011;18912;43.270;27.942;2024-03-06T04:57:03;24.03;;;10.83;;
32455;SDS011;18912;43.270;27.942;2024-03-06T04:59:29;23.92;;;11.48;;
32455;SDS011;18912;43.270;27.942;2024-03-06T05:01:55;34.50;;;13.43;;
32455;SDS011;18912;43.270;27.942;2024-03-06T05:04:20;38.63;;;13.27;;
32455;SDS011;18912;43.270;27.942;2024-03-06T05:06:46;29.23;;;13.48;;
32455;SDS011;18912;43.270;27.942;2024-03-06T05:09:12;34.15;;;13.93;;
32455;SDS011;18912;43.270;27.942;2024-03-06T05:11:40;32.13;;;15.55;;
32455;SDS011;18912;43.270;27.942;2024-03-06T05:14:05;35.85;;;15.32;;
32455;SDS011;18912;43.270;27.942;2024-03-06T05:16:32;32.17;;;15.77;;
32455;SDS011;18912;43.270;27.942;2024-03-06T05:18:58;39.27;;;17.10;;
32455;SDS011;18912;43.270;27.942;2024-03-06T05:21:23;43.03;;;15.47;;
32455;SDS011;18912;43.270;27.942;2024-03-06T05:23:49;34.87;;;15.47;;
32455;SDS011;18912;43.270;27.942;2024-03-06T05:26:14;43.43;;;15.93;;
32455;SDS011;18912;43.270;27.942;2024-03-06T05:31:16;39.15;;;15.45;;
32455;SDS011;18912;43.270;27.942;2024-03-06T05:33:48;39.50;;;15.70;;
32455;SDS011;18912;43.270;27.942;2024-03-06T05:36:16;49.00;;;16.83;;
32455;SDS011;18912;43.270;27.942;2024-03-06T05:38:43;32.80;;;14.67;;
32455;SDS011;18912;43.270;27.942;2024-03-06T05:41:10;38.35;;;15.27;;
32455;SDS011;18912;43.270;27.942;2024-03-06T05:43:36;38.33;;;14.48;;
32455;SDS011;18912;43.270;27.942;2024-03-06T05:46:02;35.58;;;14.57;;
32455;SDS011;18912;43.270;27.942;2024-03-06T05:48:28;39.03;;;13.75;;
32455;SDS011;18912;43.270;27.942;2024-03-06T05:50:53;39.07;;;14.93;;
32455;SDS011;18912;43.270;27.942;2024-03-06T05:53:19;36.30;;;14.43;;
32455;SDS011;18912;43.270;27.942;2024-03-06T05:55:45;30.43;;;13.43;;
32455;SDS011;18912;43.270;27.942;2024-03-06T05:58:11;37.00;;;13.85;;
32455;SDS011;18912;43.270;27.942;2024-03-06T06:00:37;34.77;;;14.10;;
32455;SDS011;18912;43.270;27.942;2024-03-06T06:03:03;34.45;;;13.20;;
32455;SDS011;18912;43.270;27.942;2024-03-06T06:05:29;32.65;;;12.82;;
32455;SDS011;18912;43.270;27.942;2024-03-06T06:07:54;31.87;;;11.67;;
32455;SDS011;18912;43.270;27.942;2024-03-06T06:10:20;28.50;;;12.03;;
32455;SDS011;18912;43.270;27.942;2024-03-06T06:12:45;26.07;;;12.17;;
32455;SDS011;18912;43.270;27.942;2024-03-06T06:15:11;29.63;;;11.87;;
32455;SDS011;18912;43.270;27.942;2024-03-06T06:17:37;29.70;;;12.37;;
32455;SDS011;18912;43.270;27.942;2024-03-06T06:20:04;29.85;;;12.55;;
32455;SDS011;18912;43.270;27.942;2024-03-06T06:22:35;33.80;;;12.65;;
32455;SDS011;18912;43.270;27.942;2024-03-06T06:25:01;24.00;;;11.05;;
32455;SDS011;18912;43.270;27.942;2024-03-06T06:27:28;24.13;;;11.25;;
32455;SDS011;18912;43.270;27.942;2024-03-06T06:29:54;26.27;;;11.53;;
32455;SDS011;18912;43.270;27.942;2024-03-06T06:32:20;26.70;;;10.98;;
32455;SDS011;18912;43.270;27.942;2024-03-06T06:34:46;25.30;;;10.73;;
32455;SDS011;18912;43.270;27.942;2024-03-06T06:37:12;34.73;;;10.63;;
32455;SDS011;18912;43.270;27.942;2024-03-06T06:39:38;21.17;;;7.87;;
32455;SDS011;18912;43.270;27.942;2024-03-06T06:44:29;22.13;;;9.75;;
32455;SDS011;18912;43.270;27.942;2024-03-06T06:46:55;33.07;;;10.23;;
32455;SDS011;18912;43.270;27.942;2024-03-06T06:49:21;31.02;;;11.15;;
32455;SDS011;18912;43.270;27.942;2024-03-06T06:51:47;21.33;;;10.17;;
32455;SDS011;18912;43.270;27.942;2024-03-06T06:54:14;24.45;;;9.93;;
32455;SDS011;18912;43.270;27.942;2024-03-06T06:56:40;23.42;;;10.88;;
32455;SDS011;18912;43.270;27.942;2024-03-06T06:59:05;26.43;;;10.33;;
32455;SDS011;18912;43.270;27.942;2024-03-06T07:01:31;19.50;;;9.70;;
32455;SDS011;18912;43.270;27.942;2024-03-06T07:03:58;20.48;;;8.93;;
32455;SDS011;18912;43.270;27.942;2024-03-06T07:06:24;16.75;;;8.73;;
32455;SDS011;18912;43.270;27.942;2024-03-06T07:08:50;19.55;;;7.97;;
32455;SDS011;18912;43.270;27.942;2024-03-06T07:11:16;16.90;;;8.87;;
32455;SDS011;18912;43.270;27.942;2024-03-06T07:13:43;24.92;;;9.65;;
32455;SDS011;18912;43.270;27.942;2024-03-06T07:16:09;23.27;;;8.73;;
32455;SDS011;18912;43.270;27.942;2024-03-06T07:18:34;21.60;;;8.17;;
32455;SDS011;18912;43.270;27.942;2024-03-06T07:21:00;23.20;;;8.33;;
32455;SDS011;18912;43.270;27.942;2024-03-06T07:23:26;21.47;;;8.27;;
32455;SDS011;18912;43.270;27.942;2024-03-06T07:25:51;22.60;;;9.77;;
32455;SDS011;18912;43.270;27.942;2024-03-06T07:28:17;24.63;;;7.93;;
32455;SDS011;18912;43.270;27.942;2024-03-06T07:30:43;18.93;;;8.70;;
32455;SDS011;18912;43.270;27.942;2024-03-06T07:33:08;18.97;;;8.47;;
32455;SDS011;18912;43.270;27.942;2024-03-06T07:35:34;23.10;;;8.67;;
32455;SDS011;18912;43.270;27.942;2024-03-06T07:38:01;20.73;;;9.80;;
32455;SDS011;18912;43.270;27.942;2024-03-06T07:40:29;22.20;;;9.52;;
32455;SDS011;18912;43.270;27.942;2024-03-06T07:42:56;18.60;;;9.43;;
32455;SDS011;18912;43.270;27.942;2024-03-06T07:45:22;25.57;;;9.53;;
32455;SDS011;18912;43.270;27.942;2024-03-06T07:47:47;26.93;;;9.40;;
32455;SDS011;18912;43.270;27.942;2024-03-06T07:50:13;23.57;;;9.07;;
32455;SDS011;18912;43.270;27.942;2024-03-06T07:52:44;20.27;;;9.35;;
32455;SDS011;18912;43.270;27.942;2024-03-06T07:55:11;27.10;;;10.32;;
32455;SDS011;18912;43.270;27.942;2024-03-06T07:57:36;20.20;;;8.90;;
32455;SDS011;18912;43.270;27.942;2024-03-06T08:00:02;36.17;;;10.63;;
32455;SDS011;18912;43.270;27.942;2024-03-06T08:05:09;22.27;;;10.10;;
32455;SDS011;18912;43.270;27.942;2024-03-06T08:07:37;21.38;;;9.23;;
32455;SDS011;18912;43.270;27.942;2024-03-06T08:10:07;27.77;;;10.07;;
32455;SDS011;18912;43.270;27.942;2024-03-06T08:12:40;29.67;;;10.55;;
32455;SDS011;18912;43.270;27.942;2024-03-06T08:15:07;21.77;;;9.55;;
32455;SDS011;18912;43.270;27.942;2024-03-06T08:17:35;22.13;;;10.15;;
32455;SDS011;18912;43.270;27.942;2024-03-06T08:20:02;22.50;;;11.00;;
32455;SDS011;18912;43.270;27.942;2024-03-06T08:22:42;29.05;;;10.80;;
32455;SDS011;18912;43.270;27.942;2024-03-06T08:25:08;19.10;;;9.38;;
32455;SDS011;18912;43.270;27.942;2024-03-06T08:27:35;24.20;;;9.45;;
32455;SDS011;18912;43.270;27.942;2024-03-06T08:30:05;20.90;;;9.15;;
32455;SDS011;18912;43.270;27.942;2024-03-06T08:32:32;21.50;;;8.25;;
32455;SDS011;18912;43.270;27.942;2024-03-06T08:35:08;20.92;;;8.77;;
32455;SDS011;18912;43.270;27.942;2024-03-06T08:37:36;24.48;;;8.23;;
32455;SDS011;18912;43.270;27.942;2024-03-06T08:40:02;22.63;;;8.25;;
32455;SDS011;18912;43.270;27.942;2024-03-06T08:42:28;18.67;;;9.02;;
32455;SDS011;18912;43.270;27.942;2024-03-06T08:44:54;22.42;;;7.35;;
32455;SDS011;18912;43.270;27.942;2024-03-06T08:47:20;25.60;;;8.43;;
32455;SDS011;18912;43.270;27.942;2024-03-06T08:49:45;23.50;;;8.00;;
32455;SDS011;18912;43.270;27.942;2024-03-06T08:52:11;17.50;;;8.17;;
32455;SDS011;18912;43.270;27.942;2024-03-06T08:54:38;23.52;;;8.57;;
32455;SDS011;18912;43.270;27.942;2024-03-06T08:57:06;19.80;;;8.55;;
32455;SDS011;18912;43.270;27.942;2024-03-06T08:59:33;21.15;;;8.50;;
32455;SDS011;18912;43.270;27.942;2024-03-06T09:02:10;22.35;;;9.05;;
32455;SDS011;18912;43.270;27.942;2024-03-06T09:04:40;21.70;;;9.30;;
32455;SDS011;18912;43.270;27.942;2024-03-06T09:07:07;30.10;;;9.25;;
32455;SDS011;18912;43.270;27.942;2024-03-06T09:09:32;16.53;;;8.53;;
32455;SDS011;18912;43.270;27.942;2024-03-06T09:11:59;21.98;;;8.32;;
32455;SDS011;18912;43.270;27.942;2024-03-06T09:14:25;21.33;;;8.45;;
32455;SDS011;18912;43.270;27.942;2024-03-06T09:16:51;22.40;;;8.90;;
32455;SDS011;18912;43.270;27.942;2024-03-06T09:19:16;24.47;;;8.37;;
32455;SDS011;18912;43.270;27.942;2024-03-06T09:21:42;23.33;;;8.60;;
32455;SDS011;18912;43.270;27.942;2024-03-06T09:24:07;26.27;;;7.87;;
32455;SDS011;18912;43.270;27.942;2024-03-06T09:26:33;28.30;;;7.97;;
32455;SDS011;18912;43.270;27.942;2024-03-06T09:28:58;17.17;;;7.57;;
32455;SDS011;18912;43.270;27.942;2024-03-06T09:31:24;15.37;;;7.40;;
32455;SDS011;18912;43.270;27.942;2024-03-06T09:33:50;11.63;;;5.57;;
32455;SDS011;18912;43.270;27.942;2024-03-06T09:36:15;23.83;;;9.10;;
32455;SDS011;18912;43.270;27.942;2024-03-06T09:38:41;16.93;;;9.07;;
32455;SDS011;18912;43.270;27.942;2024-03-06T09:41:08;14.55;;;8.48;;
32455;SDS011;18912;43.270;27.942;2024-03-06T09:43:33;18.35;;;8.73;;
32455;SDS011;18912;43.270;27.942;2024-03-06T09:45:59;20.27;;;8.43;;
32455;SDS011;18912;43.270;27.942;2024-03-06T09:48:29;16.95;;;8.52;;
32455;SDS011;18912;43.270;27.942;2024-03-06T09:50:57;25.48;;;9.40;;
32455;SDS011;18912;43.270;27.942;2024-03-06T09:53:27;25.05;;;8.10;;
32455;SDS011;18912;43.270;27.942;2024-03-06T09:58:21;22.85;;;10.18;;
32455;SDS011;18912;43.270;27.942;2024-03-06T10:00:47;18.13;;;7.00;;
32455;SDS011;18912;43.270;27.942;2024-03-06T10:03:15;28.33;;;10.18;;
32455;SDS011;18912;43.270;27.942;2024-03-06T10:05:41;23.37;;;10.07;;
32455;SDS011;18912;43.270;27.942;2024-03-06T10:08:08;21.88;;;9.88;;
32455;SDS011;18912;43.270;27.942;2024-03-06T10:10:35;23.88;;;10.25;;
32455;SDS011;18912;43.270;27.942;2024-03-06T10:13:01;23.17;;;9.95;;
32455;SDS011;18912;43.270;27.942;2024-03-06T10:15:27;22.37;;;8.97;;
32455;SDS011;18912;43.270;27.942;2024-03-06T10:20:39;29.60;;;10.20;;
32455;SDS011;18912;43.270;27.942;2024-03-06T10:23:05;24.95;;;9.73;;
32455;SDS011;18912;43.270;27.942;2024-03-06T10:25:32;26.70;;;9.95;;
32455;SDS011;18912;43.270;27.942;2024-03-06T10:28:10;29.33;;;10.67;;
32455;SDS011;18912;43.270;27.942;2024-03-06T10:30:38;27.40;;;10.30;;
32455;SDS011;18912;43.270;27.942;2024-03-06T10:33:07;26.95;;;10.68;;
32455;SDS011;18912;43.270;27.942;2024-03-06T10:38:01;23.40;;;10.00;;
32455;SDS011;18912;43.270;27.942;2024-03-06T10:40:36;18.95;;;9.60;;
32455;SDS011;18912;43.270;27.942;2024-03-06T10:43:03;20.33;;;10.20;;
32455;SDS011;18912;43.270;27.942;2024-03-06T10:48:19;27.30;;;10.35;;
32455;SDS011;18912;43.270;27.942;2024-03-06T10:50:48;24.42;;;9.88;;
32455;SDS011;18912;43.270;27.942;2024-03-06T10:53:16;27.20;;;11.07;;
32455;SDS011;18912;43.270;27.942;2024-03-06T10:55:43;24.40;;;10.55;;
32455;SDS011;18912;43.270;27.942;2024-03-06T10:58:09;20.20;;;10.65;;
32455;SDS011;18912;43.270;27.942;2024-03-06T11:00:42;23.08;;;11.57;;
32455;SDS011;18912;43.270;27.942;2024-03-06T11:03:12;24.80;;;10.50;;
32455;SDS011;18912;43.270;27.942;2024-03-06T11:05:39;23.65;;;11.70;;
32455;SDS011;18912;43.270;27.942;2024-03-06T11:08:09;20.67;;;10.13;;
32455;SDS011;18912;43.270;27.942;2024-03-06T11:10:37;24.73;;;11.07;;
32455;SDS011;18912;43.270;27.942;2024-03-06T11:15:45;24.25;;;11.60;;
32455;SDS011;18912;43.270;27.942;2024-03-06T11:23:28;24.05;;;11.13;;
32455;SDS011;18912;43.270;27.942;2024-03-06T11:25:55;25.20;;;10.80;;
32455;SDS011;18912;43.270;27.942;2024-03-06T11:31:09;28.27;;;11.07;;
32455;SDS011;18912;43.270;27.942;2024-03-06T11:33:44;23.40;;;10.70;;
32455;SDS011;18912;43.270;27.942;2024-03-06T11:36:15;24.45;;;10.73;;
32455;SDS011;18912;43.270;27.942;2024-03-06T11:41:32;25.40;;;10.82;;
32455;SDS011;18912;43.270;27.942;2024-03-06T11:44:01;28.65;;;11.13;;
32455;SDS011;18912;43.270;27.942;2024-03-06T11:46:41;26.08;;;10.63;;
32455;SDS011;18912;43.270;27.942;2024-03-06T11:52:03;27.10;;;11.68;;
32455;SDS011;18912;43.270;27.942;2024-03-06T11:54:31;31.38;;;12.00;;
32455;SDS011;18912;43.270;27.942;2024-03-06T11:57:01;22.10;;;11.23;;
32455;SDS011;18912;43.270;27.942;2024-03-06T11:59:34;21.50;;;11.43;;
32455;SDS011;18912;43.270;27.942;2024-03-06T12:02:04;35.08;;;11.38;;
32455;SDS011;18912;43.270;27.942;2024-03-06T12:04:30;25.88;;;11.43;;
32455;SDS011;18912;43.270;27.942;2024-03-06T12:06:59;40.22;;;13.00;;
32455;SDS011;18912;43.270;27.942;2024-03-06T12:09:30;26.48;;;11.32;;
32455;SDS011;18912;43.270;27.942;2024-03-06T12:11:55;33.93;;;11.77;;
32455;SDS011;18912;43.270;27.942;2024-03-06T12:14:22;24.40;;;11.45;;
32455;SDS011;18912;43.270;27.942;2024-03-06T12:16:57;33.88;;;12.20;;
32455;SDS011;18912;43.270;27.942;2024-03-06T12:19:27;35.17;;;12.55;;
32455;SDS011;18912;43.270;27.942;2024-03-06T12:21:55;26.30;;;11.88;;
32455;SDS011;18912;43.270;27.942;2024-03-06T12:24:20;27.20;;;11.60;;
32455;SDS011;18912;43.270;27.942;2024-03-06T12:26:46;27.57;;;11.63;;
32455;SDS011;18912;43.270;27.942;2024-03-06T12:29:18;25.60;;;12.55;;
32455;SDS011;18912;43.270;27.942;2024-03-06T12:31:45;35.15;;;12.95;;
32455;SDS011;18912;43.270;27.942;2024-03-06T12:34:13;32.43;;;12.43;;
32455;SDS011;18912;43.270;27.942;2024-03-06T12:36:40;33.88;;;12.30;;
32455;SDS011;18912;43.270;27.942;2024-03-06T12:39:06;27.67;;;12.73;;
32455;SDS011;18912;43.270;27.942;2024-03-06T12:41:41;28.08;;;12.90;;
32455;SDS011;18912;43.270;27.942;2024-03-06T12:44:06;32.97;;;12.27;;
32455;SDS011;18912;43.270;27.942;2024-03-06T12:46:32;31.07;;;12.47;;
32455;SDS011;18912;43.270;27.942;2024-03-06T12:48:58;21.47;;;8.93;;
32455;SDS011;18912;43.270;27.942;2024-03-06T12:51:23;44.53;;;13.67;;
32455;SDS011;18912;43.270;27.942;2024-03-06T12:53:48;34.30;;;12.70;;
32455;SDS011;18912;43.270;27.942;2024-03-06T12:56:15;27.20;;;12.17;;
32455;SDS011;18912;43.270;27.942;2024-03-06T12:58:40;28.40;;;13.55;;
32455;SDS011;18912;43.270;27.942;2024-03-06T13:01:06;32.27;;;12.60;;
32455;SDS011;18912;43.270;27.942;2024-03-06T13:03:31;31.30;;;12.43;;
32455;SDS011;18912;43.270;27.942;2024-03-06T13:05:57;26.10;;;11.77;;
32455;SDS011;18912;43.270;27.942;2024-03-06T13:08:23;29.50;;;12.37;;
32455;SDS011;18912;43.270;27.942;2024-03-06T13:10:48;33.40;;;11.83;;
32455;SDS011;18912;43.270;27.942;2024-03-06T13:13:14;22.90;;;11.53;;
32455;SDS011;18912;43.270;27.942;2024-03-06T13:15:39;30.23;;;12.60;;
32455;SDS011;18912;43.270;27.942;2024-03-06T13:18:05;24.73;;;12.20;;
32455;SDS011;18912;43.270;27.942;2024-03-06T13:20:31;29.13;;;13.82;;
32455;SDS011;18912;43.270;27.942;2024-03-06T13:22:57;32.35;;;13.95;;
32455;SDS011;18912;43.270;27.942;2024-03-06T13:25:23;38.23;;;13.40;;
32455;SDS011;18912;43.270;27.942;2024-03-06T13:27:49;31.57;;;12.50;;
32455;SDS011;18912;43.270;27.942;2024-03-06T13:30:17;25.58;;;12.95;;
32455;SDS011;18912;43.270;27.942;2024-03-06T13:32:43;23.17;;;11.77;;
32455;SDS011;18912;43.270;27.942;2024-03-06T13:35:10;28.13;;;12.77;;
32455;SDS011;18912;43.270;27.942;2024-03-06T13:37:38;30.85;;;13.48;;
32455;SDS011;18912;43.270;27.942;2024-03-06T13:40:03;36.45;;;14.40;;
32455;SDS011;18912;43.270;27.942;2024-03-06T13:42:32;34.53;;;13.18;;
32455;SDS011;18912;43.270;27.942;2024-03-06T13:44:58;28.05;;;12.70;;
32455;SDS011;18912;43.270;27.942;2024-03-06T13:47:23;24.77;;;13.07;;
32455;SDS011;18912;43.270;27.942;2024-03-06T13:49:49;38.93;;;13.03;;
32455;SDS011;18912;43.270;27.942;2024-03-06T13:52:14;27.53;;;13.20;;
32455;SDS011;18912;43.270;27.942;2024-03-06T13:54:44;38.45;;;13.57;;
32455;SDS011;18912;43.270;27.942;2024-03-06T13:57:10;35.47;;;13.27;;
32455;SDS011;18912;43.270;27.942;2024-03-06T13:59:36;34.17;;;13.98;;
32455;SDS011;18912;43.270;27.942;2024-03-06T14:02:02;26.75;;;12.93;;
32455;SDS011;18912;43.270;27.942;2024-03-06T14:04:28;32.67;;;13.18;;
32455;SDS011;18912;43.270;27.942;2024-03-06T14:06:55;26.58;;;12.65;;
32455;SDS011;18912;43.270;27.942;2024-03-06T14:09:24;31.92;;;12.88;;
32455;SDS011;18912;43.270;27.942;2024-03-06T14:11:50;30.58;;;14.10;;
32455;SDS011;18912;43.270;27.942;2024-03-06T14:14:17;33.00;;;13.35;;
32455;SDS011;18912;43.270;27.942;2024-03-06T14:16:43;29.73;;;13.48;;
32455;SDS011;18912;43.270;27.942;2024-03-06T14:19:09;28.95;;;12.85;;
32455;SDS011;18912;43.270;27.942;2024-03-06T14:21:34;30.40;;;12.60;;
32455;SDS011;18912;43.270;27.942;2024-03-06T14:24:00;35.57;;;13.10;;
32455;SDS011;18912;43.270;27.942;2024-03-06T14:26:29;26.67;;;12.55;;
32455;SDS011;18912;43.270;27.942;2024-03-06T14:28:55;31.92;;;13.02;;
32455;SDS011;18912;43.270;27.942;2024-03-06T14:31:22;31.13;;;14.05;;
32455;SDS011;18912;43.270;27.942;2024-03-06T14:33:47;28.93;;;12.43;;
32455;SDS011;18912;43.270;27.942;2024-03-06T14:36:14;32.85;;;14.48;;
32455;SDS011;18912;43.270;27.942;2024-03-06T14:38:39;36.77;;;15.63;;
32455;SDS011;18912;43.270;27.942;2024-03-06T14:41:05;27.47;;;13.97;;
32455;SDS011;18912;43.270;27.942;2024-03-06T14:43:34;32.75;;;14.93;;
32455;SDS011;18912;43.270;27.942;2024-03-06T14:46:01;38.72;;;14.93;;
32455;SDS011;18912;43.270;27.942;2024-03-06T14:48:27;34.85;;;14.93;;
32455;SDS011;18912;43.270;27.942;2024-03-06T14:50:52;34.93;;;15.10;;
32455;SDS011;18912;43.270;27.942;2024-03-06T14:53:18;33.73;;;15.03;;